Time;durP1;ratioP1;P1;durP2;ratioP2;P2;SDS_P1;SDS_P2;PMS_P1;PMS_P2;Temp;Humidity;BMP_temperature;BMP_pressure;BME280_temperature;BME280_humidity;BME280_pressure;Samples;Min_cycle;Max_cycle;Signal;HPM_P1;HPM_P2
2021/05/02 00:04:08;;;;;;;6.77;3.87;;;;;;;9.37;90.57;100570.34;4958792;23;20551;-66
2021/05/02 00:06:34;;;;;;;5.60;2.90;;;;;;;9.40;90.18;100561.66;4935864;29;20822;-66
2021/05/02 00:09:00;;;;;;;6.80;3.97;;;;;;;9.40;90.09;100558.16;4936179;29;20448;-67
2021/05/02 00:11:27;;;;;;;4.03;2.40;;;;;;;9.42;90.32;100564.03;4935793;29;20603;-67
2021/05/02 00:13:53;;;;;;;7.73;3.70;;;;;;;9.40;90.36;100556.25;4936178;29;20483;-66
2021/05/02 00:16:19;;;;;;;9.60;4.13;;;;;;;9.43;90.64;100555.66;4936074;29;21024;-67
2021/05/02 00:18:47;;;;;;;5.90;4.03;;;;;;;9.41;90.00;100548.94;4936078;29;20443;-67
2021/05/02 00:21:13;;;;;;;8.10;2.90;;;;;;;9.37;88.63;100553.31;4936029;29;20463;-67
2021/05/02 00:23:41;;;;;;;11.00;5.10;;;;;;;9.37;88.03;100554.13;4935900;29;20463;-66
2021/05/02 00:26:08;;;;;;;4.60;2.43;;;;;;;9.30;87.92;100559.91;4935358;29;20463;-66
2021/05/02 00:28:37;;;;;;;5.97;3.10;;;;;;;9.25;87.68;100551.88;4935629;29;20937;-65
2021/05/02 00:31:05;;;;;;;8.73;4.03;;;;;;;9.20;88.07;100554.63;4936045;29;20448;-63
2021/05/02 00:33:32;;;;;;;7.83;4.13;;;;;;;9.17;88.15;100547.13;4935781;29;20460;-64
2021/05/02 00:36:00;;;;;;;6.93;3.70;;;;;;;9.13;87.81;100537.19;4935856;29;20487;-67
2021/05/02 00:38:26;;;;;;;5.00;2.60;;;;;;;9.13;88.00;100543.41;4935930;29;20464;-65
2021/05/02 00:40:56;;;;;;;5.33;2.40;;;;;;;9.14;89.44;100547.69;4935571;29;20447;-66
2021/05/02 00:43:30;;;;;;;5.83;1.83;;;;;;;9.15;90.04;100535.78;4935803;29;20471;-66
2021/05/02 00:46:01;;;;;;;5.30;3.47;;;;;;;9.16;90.76;100533.88;4938869;29;20431;-66
2021/05/02 00:48:35;;;;;;;5.63;3.40;;;;;;;9.17;90.79;100522.00;4939310;29;20901;-66
2021/05/02 00:51:05;;;;;;;5.80;4.10;;;;;;;9.18;91.06;100518.19;4939647;29;20432;-66
2021/05/02 00:53:38;;;;;;;3.17;1.80;;;;;;;9.20;91.07;100507.88;4938788;29;20565;-65
2021/05/02 00:56:15;;;;;;;6.57;2.97;;;;;;;9.21;91.11;100517.59;4939437;29;20495;-66
2021/05/02 00:58:49;;;;;;;5.77;2.93;;;;;;;9.20;91.29;100527.59;4939444;29;20419;-66
2021/05/02 01:01:19;;;;;;;4.50;2.90;;;;;;;9.24;91.02;100527.81;4939550;29;20431;-66
2021/05/02 01:03:48;;;;;;;9.00;2.90;;;;;;;9.17;91.26;100522.81;4939010;29;20471;-66
2021/05/02 01:06:15;;;;;;;3.20;2.23;;;;;;;9.16;91.32;100526.56;4938949;29;20439;-66
2021/05/02 01:08:42;;;;;;;4.83;2.40;;;;;;;9.14;91.52;100522.59;4938944;29;20949;-66
2021/05/02 01:11:11;;;;;;;3.33;2.53;;;;;;;9.18;91.59;100534.41;4939244;29;20447;-66
2021/05/02 01:13:43;;;;;;;6.60;3.37;;;;;;;9.16;91.63;100537.38;4939141;29;20534;-66
2021/05/02 01:16:12;;;;;;;5.30;3.20;;;;;;;9.16;91.06;100520.38;4938469;29;20482;-67
2021/05/02 01:18:39;;;;;;;7.80;3.30;;;;;;;9.07;90.21;100520.22;4938967;29;20463;-67
2021/05/02 01:21:07;;;;;;;8.60;4.53;;;;;;;9.03;89.68;100520.03;4939025;29;20450;-66
2021/05/02 01:23:35;;;;;;;5.53;3.17;;;;;;;9.03;89.47;100516.50;4938825;29;20518;-66
2021/05/02 01:26:01;;;;;;;6.50;3.50;;;;;;;9.01;89.08;100516.81;4938984;29;20455;-66
2021/05/02 01:28:28;;;;;;;8.40;4.27;;;;;;;9.01;88.64;100518.72;4938789;29;20451;-67
2021/05/02 01:30:55;;;;;;;6.50;4.13;;;;;;;8.96;89.14;100513.38;4938328;29;20830;-67
2021/05/02 01:33:22;;;;;;;6.93;3.80;;;;;;;8.95;89.34;100514.47;4938676;29;20475;-66
2021/05/02 01:35:48;;;;;;;6.90;3.40;;;;;;;8.93;89.83;100520.16;4938313;29;20913;-67
2021/05/02 01:38:15;;;;;;;5.10;2.87;;;;;;;8.94;90.86;100529.06;4938691;29;20503;-66
2021/05/02 01:40:42;;;;;;;5.43;3.07;;;;;;;8.96;91.57;100521.47;4938506;29;20960;-66
2021/05/02 01:43:08;;;;;;;6.10;3.50;;;;;;;8.94;92.39;100529.06;4938592;29;20475;-67
2021/05/02 01:45:34;;;;;;;9.67;3.33;;;;;;;8.97;92.31;100531.19;4938468;29;20444;-66
2021/05/02 01:48:03;;;;;;;7.90;4.03;;;;;;;9.02;92.42;100528.41;4938558;29;20507;-66
2021/05/02 01:50:32;;;;;;;3.40;2.97;;;;;;;9.04;92.27;100531.63;4938244;29;20447;-66
2021/05/02 01:52:58;;;;;;;7.03;2.57;;;;;;;9.02;92.47;100525.72;4938368;29;20464;-66
2021/05/02 01:55:24;;;;;;;5.40;2.73;;;;;;;9.04;92.58;100523.53;4938226;29;20487;-67
2021/05/02 01:57:52;;;;;;;5.77;3.07;;;;;;;9.04;92.40;100520.84;4937503;29;20503;-67
2021/05/02 02:00:30;;;;;;;5.20;2.93;;;;;;;9.08;92.20;100513.75;4938444;29;20446;-66
2021/05/02 02:03:00;;;;;;;9.40;3.53;;;;;;;9.08;92.32;100519.97;4938126;29;20539;-67
2021/05/02 02:05:26;;;;;;;12.73;3.77;;;;;;;9.07;92.46;100512.13;4938201;29;20439;-66
2021/05/02 02:07:52;;;;;;;3.90;2.87;;;;;;;9.08;92.24;100514.56;4938276;29;20454;-67
2021/05/02 02:10:20;;;;;;;5.80;2.10;;;;;;;8.99;91.90;100510.91;4938093;29;20443;-66
2021/05/02 02:12:49;;;;;;;6.53;4.00;;;;;;;8.93;91.25;100506.66;4938052;29;20471;-66
2021/05/02 02:15:16;;;;;;;4.67;3.70;;;;;;;8.93;90.58;100500.44;4938014;29;20487;-66
2021/05/02 02:17:42;;;;;;;8.50;4.83;;;;;;;8.88;89.97;100508.63;4938033;29;20873;-66
2021/05/02 02:20:09;;;;;;;11.63;3.00;;;;;;;8.88;89.33;100497.81;4938093;29;20444;-66
2021/05/02 02:22:37;;;;;;;6.43;3.90;;;;;;;8.87;89.50;100504.31;4937898;29;20460;-67
2021/05/02 02:25:04;;;;;;;3.83;3.30;;;;;;;8.82;90.01;100489.78;4937968;29;20482;-66
2021/05/02 02:27:32;;;;;;;5.70;3.00;;;;;;;8.80;89.88;100504.66;4937549;29;20843;-67
2021/05/02 02:29:59;;;;;;;6.77;3.13;;;;;;;8.81;90.52;100504.41;4937745;29;20447;-67
2021/05/02 02:32:27;;;;;;;7.90;4.37;;;;;;;8.79;91.64;100495.78;4937579;29;20538;-67
2021/05/02 02:34:56;;;;;;;8.23;2.57;;;;;;;8.82;92.24;100495.19;4937374;29;21004;-66
2021/05/02 02:37:23;;;;;;;3.00;2.23;;;;;;;8.82;92.51;100497.91;4937580;29;20447;-66
2021/05/02 02:39:51;;;;;;;8.40;3.57;;;;;;;8.83;92.57;100490.59;4937526;29;20451;-67
2021/05/02 02:42:19;;;;;;;5.20;3.07;;;;;;;8.84;92.71;100484.09;4937184;29;20993;-66
2021/05/02 02:44:49;;;;;;;6.13;3.17;;;;;;;8.86;93.20;100491.94;4937571;29;20444;-66
2021/05/02 02:47:18;;;;;;;3.10;2.53;;;;;;;8.91;93.54;100491.84;4937429;29;20443;-66
2021/05/02 02:49:48;;;;;;;10.17;3.20;;;;;;;8.94;93.46;100486.66;4937410;29;20450;-66
2021/05/02 02:52:18;;;;;;;4.70;3.13;;;;;;;8.86;93.69;100483.81;4937301;29;20459;-66
2021/05/02 02:54:47;;;;;;;9.60;4.40;;;;;;;8.90;93.34;100490.22;4936999;29;20488;-66
2021/05/02 02:57:20;;;;;;;6.43;4.00;;;;;;;8.85;93.84;100485.69;4937238;29;20444;-66
2021/05/02 02:59:48;;;;;;;5.13;2.20;;;;;;;8.76;94.36;100485.53;4937273;29;20428;-66
2021/05/02 03:02:15;;;;;;;2.93;2.03;;;;;;;8.84;93.98;100490.28;4936954;29;20491;-67
2021/05/02 03:04:46;;;;;;;8.87;4.40;;;;;;;8.88;93.53;100487.81;4937189;29;20432;-67
2021/05/02 03:07:12;;;;;;;10.03;4.57;;;;;;;8.89;92.56;100496.72;4936951;29;20432;-67
2021/05/02 03:09:41;;;;;;;6.90;2.50;;;;;;;8.88;91.85;100487.03;4936914;29;20444;-66
2021/05/02 03:12:10;;;;;;;6.57;4.13;;;;;;;8.77;91.91;100499.88;4936915;29;20471;-66
2021/05/02 03:14:37;;;;;;;8.20;4.07;;;;;;;8.68;91.76;100496.22;4936910;29;20455;-66
2021/05/02 03:17:05;;;;;;;7.67;3.67;;;;;;;8.71;92.04;100507.22;4936943;29;20475;-66
2021/05/02 03:19:34;;;;;;;16.57;5.27;;;;;;;8.68;91.92;100499.72;4936569;29;20949;-66
2021/05/02 03:22:06;;;;;;;5.93;4.50;;;;;;;8.69;91.78;100501.31;4936796;29;20482;-67
2021/05/02 03:24:35;;;;;;;9.93;4.80;;;;;;;8.67;91.60;100494.59;4936825;29;20432;-67
2021/05/02 03:27:03;;;;;;;7.43;3.20;;;;;;;8.65;92.48;100503.00;4936785;29;20452;-66
2021/05/02 03:29:40;;;;;;;4.37;3.17;;;;;;;8.65;93.36;100497.59;4936718;29;20454;-66
2021/05/02 03:32:08;;;;;;;10.70;4.67;;;;;;;8.69;93.46;100501.31;4936668;29;20489;-67
2021/05/02 03:34:40;;;;;;;10.30;3.90;;;;;;;8.70;93.62;100508.31;4936326;29;20960;-66
2021/05/02 03:37:09;;;;;;;5.70;2.77;;;;;;;8.73;93.83;100504.25;4936009;29;20506;-66
2021/05/02 03:39:37;;;;;;;10.40;4.03;;;;;;;8.75;93.69;100505.53;4936413;29;20498;-66
2021/05/02 03:42:03;;;;;;;7.73;4.10;;;;;;;8.71;93.71;100503.72;4936308;29;20447;-66
2021/05/02 03:44:29;;;;;;;5.53;3.47;;;;;;;8.72;93.86;100510.72;4936477;29;20499;-66
2021/05/02 03:46:55;;;;;;;5.30;3.03;;;;;;;8.66;94.07;100506.50;4936555;29;20835;-66
2021/05/02 03:49:21;;;;;;;5.60;3.57;;;;;;;8.71;94.16;100503.72;4936491;29;20470;-67
2021/05/02 03:51:47;;;;;;;6.90;3.50;;;;;;;8.67;94.08;100508.88;4936350;29;20455;-66
2021/05/02 03:54:13;;;;;;;8.70;4.23;;;;;;;8.67;94.21;100511.59;4936442;29;20452;-66
2021/05/02 03:56:42;;;;;;;6.07;3.03;;;;;;;8.69;94.13;100512.13;4936247;29;21015;-66
2021/05/02 03:59:13;;;;;;;8.63;4.57;;;;;;;8.60;94.55;100505.75;4935963;29;20966;-66
2021/05/02 04:01:43;;;;;;;6.10;3.97;;;;;;;8.60;94.09;100511.16;4936552;29;20428;-66
2021/05/02 04:04:13;;;;;;;5.43;3.40;;;;;;;8.60;93.56;100508.47;4935810;29;20482;-66
2021/05/02 04:06:40;;;;;;;6.80;2.83;;;;;;;8.57;92.57;100511.72;4935985;29;20967;-66
2021/05/02 04:09:08;;;;;;;7.37;4.60;;;;;;;8.56;91.94;100513.63;4936255;29;20440;-66
2021/05/02 04:11:34;;;;;;;9.10;3.20;;;;;;;8.51;92.15;100512.91;4936093;29;20527;-66
2021/05/02 04:14:02;;;;;;;6.23;3.53;;;;;;;8.52;92.25;100506.41;4936022;29;20467;-66
2021/05/02 04:16:28;;;;;;;3.30;3.00;;;;;;;8.47;92.12;100509.16;4935774;29;21016;-66
2021/05/02 04:18:54;;;;;;;7.63;5.30;;;;;;;8.41;92.17;100510.28;4935989;29;20436;-66
2021/05/02 04:21:20;;;;;;;8.13;5.53;;;;;;;8.41;92.35;100519.22;4939822;29;20539;-66
2021/05/02 04:23:46;;;;;;;3.93;2.13;;;;;;;8.46;93.43;100513.75;4940051;29;20463;-67
2021/05/02 04:26:12;;;;;;;7.20;4.07;;;;;;;8.52;94.03;100518.00;4939964;29;20447;-66
2021/05/02 04:28:38;;;;;;;6.53;2.70;;;;;;;8.52;94.76;100509.09;4940032;29;20455;-66
2021/05/02 04:31:05;;;;;;;5.27;4.00;;;;;;;8.63;94.53;100520.56;4939985;29;20447;-66
2021/05/02 04:33:31;;;;;;;11.27;3.27;;;;;;;8.55;94.41;100513.94;4939855;29;20467;-66
2021/05/02 04:35:57;;;;;;;6.53;3.30;;;;;;;8.58;94.58;100516.81;4939448;29;20526;-66
2021/05/02 04:38:23;;;;;;;4.60;2.83;;;;;;;8.62;94.27;100518.97;4939763;29;20447;-66
2021/05/02 04:40:49;;;;;;;9.23;3.53;;;;;;;8.54;94.12;100509.59;4939729;29;20535;-66
2021/05/02 04:43:15;;;;;;;5.67;2.80;;;;;;;8.52;94.54;100509.91;4939657;29;20996;-66
2021/05/02 04:45:41;;;;;;;9.33;4.53;;;;;;;8.47;94.94;100509.97;4939441;29;20439;-66
2021/05/02 04:48:08;;;;;;;11.77;3.87;;;;;;;8.54;94.89;100510.44;4939411;29;20447;-66
2021/05/02 04:50:34;;;;;;;5.97;4.17;;;;;;;8.61;94.62;100509.25;4939566;29;20451;-66
2021/05/02 04:53:04;;;;;;;4.10;2.90;;;;;;;8.56;94.53;100510.13;4939604;29;20467;-65
2021/05/02 04:55:30;;;;;;;2.97;2.33;;;;;;;8.44;94.91;100509.72;4936966;29;20498;-64
2021/05/02 04:57:57;;;;;;;3.63;3.20;;;;;;;8.38;95.07;100505.50;4939387;29;20443;-63
2021/05/02 05:00:24;;;;;;;4.20;2.90;;;;;;;8.33;95.28;100504.44;4939306;29;20444;-63
2021/05/02 05:02:50;;;;;;;12.23;3.97;;;;;;;8.29;95.17;100491.81;4939009;29;20483;-65
2021/05/02 05:05:17;;;;;;;3.00;2.00;;;;;;;8.31;95.18;100498.50;4939321;29;20994;-65
2021/05/02 05:07:43;;;;;;;5.57;1.80;;;;;;;8.35;94.95;100496.84;4939267;29;20870;-65
2021/05/02 05:10:10;;;;;;;5.17;3.73;;;;;;;8.44;94.43;100498.94;4939245;29;20432;-65
2021/05/02 05:12:36;;;;;;;5.20;2.90;;;;;;;8.39;94.66;100501.69;4939004;29;20480;-65
2021/05/02 05:15:03;;;;;;;5.57;3.10;;;;;;;8.44;94.34;100499.72;4939088;29;20491;-65
2021/05/02 05:17:29;;;;;;;5.57;2.13;;;;;;;8.49;94.18;100501.56;4939052;29;20450;-65
2021/05/02 05:19:55;;;;;;;19.50;4.63;;;;;;;8.58;94.15;100505.22;4938985;29;20447;-65
2021/05/02 05:22:22;;;;;;;7.17;2.43;;;;;;;8.54;94.40;100504.19;4938610;29;20997;-65
2021/05/02 05:24:48;;;;;;;3.00;2.70;;;;;;;8.61;94.67;100503.84;4938912;29;20517;-65
2021/05/02 05:27:14;;;;;;;5.17;3.40;;;;;;;8.59;94.27;100507.66;4938929;29;20957;-65
2021/05/02 05:29:40;;;;;;;4.77;3.53;;;;;;;8.44;94.77;100499.72;4938994;29;20526;-65
2021/05/02 05:32:06;;;;;;;3.60;2.63;;;;;;;8.49;94.82;100496.97;4938411;29;20463;-66
2021/05/02 05:34:32;;;;;;;4.43;2.80;;;;;;;8.57;95.01;100500.94;4938641;29;20447;-65
2021/05/02 05:36:58;;;;;;;7.20;2.00;;;;;;;8.51;94.86;100500.19;4938619;29;20484;-65
2021/05/02 05:39:25;;;;;;;6.47;4.30;;;;;;;8.52;95.05;100506.41;4938718;29;20448;-66
2021/05/02 05:41:52;;;;;;;6.27;2.87;;;;;;;8.43;94.99;100498.13;4938537;29;20451;-66
2021/05/02 05:44:18;;;;;;;10.00;3.67;;;;;;;8.47;95.17;100498.38;4938564;29;20540;-67
2021/05/02 05:46:44;;;;;;;5.23;3.60;;;;;;;8.51;95.00;100500.19;4938686;29;20452;-65
2021/05/02 05:49:11;;;;;;;6.00;2.93;;;;;;;8.43;95.41;100505.44;4938483;29;20817;-65
2021/05/02 05:51:37;;;;;;;3.60;2.80;;;;;;;8.53;95.25;100508.00;4938523;29;20506;-65
2021/05/02 05:54:04;;;;;;;6.37;2.23;;;;;;;8.58;94.76;100507.94;4938332;29;20468;-65
2021/05/02 05:56:30;;;;;;;4.87;2.30;;;;;;;8.59;94.45;100513.06;4938188;29;20488;-65
2021/05/02 05:58:56;;;;;;;2.80;2.33;;;;;;;8.67;93.37;100518.88;4938174;29;20447;-65
2021/05/02 06:01:23;;;;;;;8.07;3.60;;;;;;;8.62;93.16;100521.66;4938184;29;20444;-65
2021/05/02 06:03:49;;;;;;;4.70;2.90;;;;;;;8.58;93.75;100518.72;4975303;23;20548;-71
2021/05/02 06:06:15;;;;;;;5.97;2.50;;;;;;;8.61;93.61;100520.84;4957194;28;20450;-70
2021/05/02 06:08:40;;;;;;;6.67;3.27;;;;;;;8.64;93.89;100525.69;4957181;28;20489;-70
2021/05/02 06:11:06;;;;;;;4.80;3.90;;;;;;;8.73;93.42;100529.34;4957290;28;20458;-70
2021/05/02 06:13:33;;;;;;;3.97;2.93;;;;;;;8.65;93.60;100532.69;4957141;28;20467;-70
2021/05/02 06:15:59;;;;;;;5.83;3.23;;;;;;;8.68;93.90;100528.63;4957220;28;20487;-70
2021/05/02 06:18:25;;;;;;;7.23;3.80;;;;;;;8.71;94.09;100536.13;4957055;28;20502;-70
2021/05/02 06:20:51;;;;;;;5.33;3.30;;;;;;;8.80;93.80;100540.59;4957113;28;20505;-70
2021/05/02 06:23:18;;;;;;;3.03;2.00;;;;;;;8.80;93.57;100535.19;4956912;28;20470;-70
2021/05/02 06:25:44;;;;;;;10.97;3.93;;;;;;;8.89;93.55;100537.22;4957089;28;20585;-70
2021/05/02 06:28:10;;;;;;;9.20;3.67;;;;;;;9.03;93.53;100546.22;4957003;28;20952;-69
2021/05/02 06:30:37;;;;;;;5.70;3.60;;;;;;;9.13;93.32;100548.81;4956766;29;20443;-69
2021/05/02 06:33:03;;;;;;;4.20;2.57;;;;;;;9.10;92.48;100543.97;4956746;28;20518;-69
2021/05/02 06:35:29;;;;;;;8.97;3.90;;;;;;;9.16;92.28;100548.19;4956682;28;20537;-68
2021/05/02 06:37:55;;;;;;;5.23;2.40;;;;;;;9.27;92.25;100549.66;4956679;28;20455;-69
2021/05/02 06:40:21;;;;;;;4.40;2.63;;;;;;;9.27;91.79;100548.88;4956652;28;20442;-69
2021/05/02 06:42:47;;;;;;;9.87;5.07;;;;;;;9.28;91.66;100555.88;4955794;28;20846;-69
2021/05/02 06:45:14;;;;;;;4.43;3.40;;;;;;;9.14;91.83;100555.81;4956294;28;20442;-68
2021/05/02 06:47:41;;;;;;;10.60;5.53;;;;;;;9.11;92.13;100567.19;4956599;28;20810;-69
2021/05/02 06:50:08;;;;;;;5.77;2.67;;;;;;;9.16;91.90;100555.50;4956604;28;20501;-69
2021/05/02 06:52:34;;;;;;;4.60;2.97;;;;;;;9.23;91.74;100566.75;4956380;28;20814;-70
2021/05/02 06:55:00;;;;;;;5.47;2.83;;;;;;;9.21;91.68;100567.06;4956390;28;20577;-69
2021/05/02 06:57:25;;;;;;;16.30;5.53;;;;;;;9.30;91.25;100570.72;4956374;28;20451;-69
2021/05/02 06:59:51;;;;;;;6.90;3.30;;;;;;;9.37;91.22;100569.53;4956413;28;20896;-69
2021/05/02 07:02:17;;;;;;;4.00;2.67;;;;;;;9.42;90.45;100572.16;4956084;28;20447;-69
2021/05/02 07:04:44;;;;;;;3.20;2.00;;;;;;;9.45;89.73;100576.97;4956290;28;20427;-69
2021/05/02 07:07:10;;;;;;;7.70;3.57;;;;;;;9.52;89.61;100575.53;4955913;28;20956;-69
2021/05/02 07:09:36;;;;;;;4.10;2.50;;;;;;;9.59;89.82;100581.34;4956207;29;20454;-69
2021/05/02 07:12:03;;;;;;;5.10;3.80;;;;;;;9.59;90.05;100572.44;4956209;28;20501;-68
2021/05/02 07:14:29;;;;;;;4.13;2.70;;;;;;;9.73;90.04;100583.31;4956012;28;20470;-68
2021/05/02 07:16:55;;;;;;;5.90;4.30;;;;;;;9.76;89.99;100582.72;4955951;28;20487;-69
2021/05/02 07:19:22;;;;;;;3.83;2.50;;;;;;;9.81;89.71;100586.13;4955963;28;20462;-69
2021/05/02 07:21:56;;;;;;;4.73;2.40;;;;;;;9.84;89.73;100592.88;4955999;28;20459;-68
2021/05/02 07:24:22;;;;;;;5.80;3.73;;;;;;;9.88;89.96;100582.25;4917762;29;20468;-69
2021/05/02 07:26:48;;;;;;;6.07;4.90;;;;;;;9.99;89.21;100589.09;4917736;29;20856;-68
2021/05/02 07:29:14;;;;;;;5.40;3.40;;;;;;;9.92;88.89;100591.41;4917670;29;20489;-68
2021/05/02 07:31:40;;;;;;;8.67;3.87;;;;;;;9.96;88.86;100584.25;4917646;29;20973;-69
2021/05/02 07:34:06;;;;;;;4.87;3.57;;;;;;;10.07;89.03;100593.81;4917314;29;21013;-68
2021/05/02 07:36:32;;;;;;;10.30;3.53;;;;;;;10.13;88.67;100592.63;4917582;29;20527;-68
2021/05/02 07:38:59;;;;;;;4.90;3.60;;;;;;;10.24;88.49;100599.50;4918280;29;20985;-68
2021/05/02 07:41:25;;;;;;;7.90;3.03;;;;;;;10.33;88.61;100600.44;4934523;29;20444;-68
2021/05/02 07:43:51;;;;;;;5.47;3.70;;;;;;;10.32;88.81;100593.41;4919141;29;20460;-69
2021/05/02 07:46:17;;;;;;;4.20;2.00;;;;;;;10.27;88.33;100598.94;4917521;29;20852;-69
2021/05/02 07:48:43;;;;;;;3.60;3.07;;;;;;;10.25;87.77;100595.69;4918472;29;20539;-69
2021/05/02 07:51:10;;;;;;;2.43;2.00;;;;;;;10.23;88.33;100591.66;4918734;29;20977;-69
2021/05/02 07:53:36;;;;;;;3.97;1.80;;;;;;;10.34;88.62;100593.09;4917579;29;20468;-69
2021/05/02 07:56:03;;;;;;;7.07;5.40;;;;;;;10.39;88.98;100592.22;4916919;29;20486;-70
2021/05/02 07:58:30;;;;;;;8.40;3.37;;;;;;;10.30;88.67;100597.50;4917356;29;20456;-70
2021/05/02 08:00:56;;;;;;;3.70;3.00;;;;;;;10.29;89.03;100596.72;4917858;29;20543;-70
2021/05/02 08:03:22;;;;;;;4.47;2.73;;;;;;;10.40;89.35;100599.22;4917875;29;20491;-70
2021/05/02 08:05:49;;;;;;;6.43;4.07;;;;;;;10.36;89.98;100601.75;4917084;29;20962;-70
2021/05/02 08:08:15;;;;;;;5.47;2.80;;;;;;;10.28;90.84;100597.81;4917248;29;20455;-69
2021/05/02 08:10:41;;;;;;;7.07;3.27;;;;;;;10.33;90.29;100594.22;4917171;29;20437;-70
2021/05/02 08:13:08;;;;;;;5.13;2.97;;;;;;;10.33;90.18;100594.22;4917112;29;20479;-69
2021/05/02 08:15:34;;;;;;;6.80;4.17;;;;;;;10.24;89.51;100595.97;4916991;29;20552;-69
2021/05/02 08:18:01;;;;;;;6.67;2.90;;;;;;;10.49;89.42;100600.13;4917309;29;20452;-70
2021/05/02 08:20:28;;;;;;;9.20;2.73;;;;;;;10.57;88.43;100607.56;4917229;29;20548;-69
2021/05/02 08:22:54;;;;;;;13.03;3.70;;;;;;;10.42;88.56;100595.13;4917003;29;20484;-69
2021/05/02 08:25:20;;;;;;;5.80;3.50;;;;;;;10.49;87.98;100594.72;4916935;29;20444;-70
2021/05/02 08:27:47;;;;;;;6.77;3.50;;;;;;;10.52;87.68;100594.91;4916739;29;20452;-70
2021/05/02 08:30:15;;;;;;;2.87;2.50;;;;;;;10.56;87.90;100606.75;4917034;29;20519;-70
2021/05/02 08:32:41;;;;;;;2.90;1.90;;;;;;;10.74;87.22;100596.94;4918237;29;20480;-72
2021/05/02 08:35:08;;;;;;;4.67;2.30;;;;;;;10.81;86.56;100602.75;4917659;29;20448;-72
2021/05/02 08:37:35;;;;;;;7.90;3.17;;;;;;;10.89;86.71;100609.38;4919143;29;20965;-72
2021/05/02 08:40:01;;;;;;;4.70;2.40;;;;;;;10.88;86.31;100601.53;4918947;29;20480;-71
2021/05/02 08:42:27;;;;;;;4.07;2.87;;;;;;;10.76;86.09;100604.78;4917300;29;20459;-71
2021/05/02 08:44:53;;;;;;;7.07;3.60;;;;;;;10.72;87.28;100603.78;4917215;29;20460;-71
2021/05/02 08:47:20;;;;;;;8.20;2.87;;;;;;;10.76;87.16;100605.56;4916971;29;20812;-70
2021/05/02 08:49:46;;;;;;;2.87;1.70;;;;;;;10.82;86.47;100608.97;4916882;29;20448;-70
2021/05/02 08:52:18;;;;;;;7.40;3.60;;;;;;;10.60;87.24;100607.78;4916856;29;20551;-70
2021/05/02 08:54:45;;;;;;;5.00;2.43;;;;;;;10.32;87.72;100615.06;4917469;29;20448;-71
2021/05/02 08:57:12;;;;;;;3.27;2.20;;;;;;;10.42;87.78;100605.97;4916838;29;20502;-70
2021/05/02 08:59:38;;;;;;;6.13;2.57;;;;;;;10.61;87.72;100605.88;4916850;29;20535;-70
2021/05/02 09:02:05;;;;;;;8.60;4.50;;;;;;;10.77;87.82;100611.78;4917217;29;20452;-70
2021/05/02 09:04:32;;;;;;;6.33;2.80;;;;;;;10.75;87.33;100606.66;4916543;29;20493;-69
2021/05/02 09:06:58;;;;;;;8.13;3.90;;;;;;;10.57;87.21;100607.56;4919529;29;20441;-71
2021/05/02 09:09:24;;;;;;;5.03;2.67;;;;;;;10.55;87.24;100607.06;4920888;29;20455;-71
2021/05/02 09:11:52;;;;;;;4.70;2.47;;;;;;;10.48;87.57;100604.75;4920486;29;20455;-70
2021/05/02 09:14:29;;;;;;;11.70;4.67;;;;;;;10.61;87.44;100605.88;4920182;29;20468;-71
2021/05/02 09:16:58;;;;;;;4.57;2.87;;;;;;;10.58;87.05;100601.03;4920185;29;20476;-70
2021/05/02 09:19:25;;;;;;;4.90;2.93;;;;;;;10.56;87.55;100605.97;4920632;29;20448;-71
2021/05/02 09:21:53;;;;;;;7.73;3.37;;;;;;;10.71;86.95;100597.53;4920728;29;20456;-70
2021/05/02 09:24:27;;;;;;;2.40;2.17;;;;;;;10.85;86.83;100600.25;4920096;29;20470;-70
2021/05/02 09:27:04;;;;;;;6.83;4.07;;;;;;;11.04;85.96;100603.63;4920309;29;20451;-71
2021/05/02 09:29:31;;;;;;;8.17;3.23;;;;;;;11.07;85.22;100604.94;4920050;29;20447;-71
2021/05/02 09:31:58;;;;;;;8.80;5.43;;;;;;;11.26;85.17;100602.09;4919806;29;20448;-69
2021/05/02 09:34:24;;;;;;;14.40;5.07;;;;;;;11.30;84.70;100601.19;4919820;29;20472;-70
2021/05/02 09:36:55;;;;;;;6.40;3.47;;;;;;;11.28;84.08;100600.66;4920033;29;20500;-69
2021/05/02 09:39:42;;;;;;;4.50;2.57;;;;;;;11.22;84.21;100596.47;4919704;29;20433;-70
2021/05/02 09:42:10;;;;;;;8.90;3.77;;;;;;;11.28;83.18;100597.94;4919653;29;20524;-70
2021/05/02 09:44:41;;;;;;;4.77;3.10;;;;;;;11.09;84.11;100602.72;4919857;29;20449;-73
2021/05/02 09:47:29;;;;;;;6.43;2.73;;;;;;;11.10;83.96;100598.91;4919572;29;20813;-71
2021/05/02 09:50:13;;;;;;;5.43;3.77;;;;;;;11.31;84.03;100604.69;4919269;29;20807;-70
2021/05/02 09:52:46;;;;;;;6.87;3.13;;;;;;;11.47;82.69;100603.25;4919553;29;20823;-71
2021/05/02 09:55:34;;;;;;;5.70;2.83;;;;;;;11.69;82.43;100605.19;4919724;29;20444;-70
2021/05/02 09:58:06;;;;;;;10.10;3.47;;;;;;;11.85;82.27;100605.63;4919864;29;20482;-71
2021/05/02 10:00:35;;;;;;;7.03;2.90;;;;;;;12.02;82.22;100610.38;4938504;29;20557;-69
2021/05/02 10:03:02;;;;;;;7.70;3.07;;;;;;;11.95;80.46;100610.00;4938003;29;20490;-73
2021/05/02 10:05:29;;;;;;;6.00;3.10;;;;;;;11.83;80.37;100618.72;4938156;29;20542;-71
2021/05/02 10:07:56;;;;;;;6.27;4.00;;;;;;;11.70;80.85;100614.13;4937769;29;20835;-71
2021/05/02 10:10:23;;;;;;;7.10;3.80;;;;;;;11.58;80.59;100620.88;4957105;29;20458;-72
2021/05/02 10:12:50;;;;;;;10.20;3.90;;;;;;;11.71;80.51;100616.50;4956869;28;21059;-72
2021/05/02 10:15:17;;;;;;;4.07;2.47;;;;;;;11.67;80.27;100612.81;4957340;28;20512;-71
2021/05/02 10:17:45;;;;;;;5.27;3.73;;;;;;;11.65;80.19;100609.63;4956367;28;20453;-72
2021/05/02 10:20:13;;;;;;;4.60;3.17;;;;;;;11.67;80.69;100612.00;4957279;28;20455;-71
2021/05/02 10:22:39;;;;;;;5.20;3.10;;;;;;;11.48;80.86;100607.56;4956997;28;20501;-72
2021/05/02 10:25:07;;;;;;;6.00;3.50;;;;;;;11.40;81.92;100619.13;4957143;28;20453;-71
2021/05/02 10:27:41;;;;;;;7.73;4.47;;;;;;;11.46;82.23;100617.91;4962106;28;20977;-73
2021/05/02 10:30:09;;;;;;;6.20;2.50;;;;;;;11.46;81.93;100617.91;4970802;28;20470;-73
2021/05/02 10:32:36;;;;;;;6.80;3.50;;;;;;;11.60;81.55;100612.44;4956747;28;20474;-72
2021/05/02 10:35:07;;;;;;;7.50;5.27;;;;;;;11.63;81.29;100615.31;4956654;28;20462;-71
2021/05/02 10:37:34;;;;;;;4.93;4.10;;;;;;;11.65;80.91;100620.47;4918604;29;20449;-72
2021/05/02 10:40:06;;;;;;;11.07;5.77;;;;;;;11.63;80.90;100617.25;4918660;29;20460;-71
2021/05/02 10:42:42;;;;;;;5.47;2.97;;;;;;;11.35;82.03;100613.81;4918189;29;21063;-71
2021/05/02 10:45:43;;;;;;;6.27;3.23;;;;;;;11.28;82.35;100619.66;4918528;29;20507;-72
2021/05/02 10:48:31;;;;;;;6.70;2.80;;;;;;;11.23;82.58;100630.59;4878614;29;20571;-72
2021/05/02 10:50:58;;;;;;;3.40;2.37;;;;;;;11.40;82.56;100623.75;4878516;29;20462;-71
2021/05/02 10:53:26;;;;;;;9.20;5.23;;;;;;;11.39;82.50;100627.59;4902351;29;20563;-70
2021/05/02 10:55:56;;;;;;;6.27;4.40;;;;;;;11.46;82.49;100622.53;4918239;29;20491;-71
2021/05/02 10:58:24;;;;;;;3.27;2.50;;;;;;;11.39;82.40;100633.81;4922936;29;20843;-72
2021/05/02 11:00:55;;;;;;;9.17;4.53;;;;;;;11.43;82.20;100623.16;4937164;29;20451;-71
2021/05/02 11:03:53;;;;;;;5.53;3.70;;;;;;;11.38;82.59;100632.22;4936876;29;20475;-69
2021/05/02 11:06:50;;;;;;;7.27;5.37;;;;;;;11.46;82.17;100642.31;4937082;29;20785;-69
2021/05/02 11:09:17;;;;;;;5.83;3.83;;;;;;;11.47;81.92;100641.22;4937223;29;20447;-69
2021/05/02 11:11:47;;;;;;;8.10;3.17;;;;;;;11.50;81.55;100642.50;4937041;29;20530;-70
2021/05/02 11:14:32;;;;;;;4.03;3.37;;;;;;;11.60;81.46;100645.00;4936943;29;20478;-69
2021/05/02 11:17:27;;;;;;;7.00;3.17;;;;;;;11.64;80.96;100643.25;4936879;29;20961;-70
2021/05/02 11:19:58;;;;;;;14.60;3.70;;;;;;;11.85;80.70;100638.19;4937330;29;20443;-69
2021/05/02 11:22:26;;;;;;;5.67;3.27;;;;;;;11.95;80.16;100632.50;4936895;29;20439;-70
2021/05/02 11:24:57;;;;;;;8.67;3.13;;;;;;;11.97;80.15;100638.44;4936485;29;20949;-70
2021/05/02 11:28:07;;;;;;;7.70;3.23;;;;;;;12.21;79.29;100637.31;4936752;29;20451;-70
2021/05/02 11:30:33;;;;;;;4.47;2.53;;;;;;;12.18;77.93;100636.03;4936723;29;20466;-70
2021/05/02 11:33:00;;;;;;;7.30;3.87;;;;;;;12.37;76.96;100644.78;4936646;29;20467;-70
2021/05/02 11:35:53;;;;;;;5.50;3.60;;;;;;;12.14;76.68;100645.13;4936523;29;20444;-70
2021/05/02 11:38:47;;;;;;;8.47;2.83;;;;;;;12.28;76.09;100649.34;4936587;29;20440;-70